Strona główna
METAR-TAF:

METAR-TAF

Lotnisko :

Port lotniczy Wyspa Bożego Narodzenia

Wyspa Bożego Narodzenia, Australia

Szerokość geograficzna: 10-26S, Długość geograficzna: 105-41E, wysokość: 279 m

Aktualna obserwacja pogody

Raport powstał 20 minut temu, godzina 12:31 UTC
Wiatr 7 kt od północ
Temperatura 25°C
Wilgotność 94%
Ciśnienie 1008 hPa
Widzialność 10 km lub więcej
Przerywane chmury na wysokości 1100 ft
Przerywane chmury na wysokości 1500 ft

METAR: YPXM 261231Z AUTO 35007KT 9999 // BKN011 BKN015 25/24 Q1008

czas: 19:51 (12:51 UTC)

Prognoza

Raport powstał 1 godzina i 18 minut temu, godzina 11:33 UTC
Prognoza ważna od 26 godzina 12 UTC do 27 godzina 12 UTC
Wiatr 14 kt od północno-północny zachód
Widzialność: 1000 m
Przerywane chmury na wysokości 1000 ft
Przerywane chmury na wysokości 500 ft
słaby przelotny opad deszczu, przelotny opad deszczu

TAF: YPXM 261133Z 2612/2712 34014KT 9999 -SHRA BKN010 INTER 2612/2712 1000 SHRA BKN005

Obserwacja i prognoza pogody dla ponad 4000 lotnisk (raport METAR i TAF).

Dostępne stacje oznaczono żółtymi i czerwonymi punktami na mapie.

Najedź kursorem aby zobaczyć nazwę stacji.

Kliknij aby zobaczyć obserwacje i prognozy pogody.

Aby zmienić mapę: kliknij na zielony przycisk z czarnym krzyżykiem, aby powiększyć; na zielony przycisk z myślnikiem, aby pomniejszyć; na zielone strzałki, aby przejść do map sąsiednich.


METAR-TAF: